Time;durP1;ratioP1;P1;durP2;ratioP2;P2;SDS_P1;SDS_P2;PMS_P1;PMS_P2;Temp;Humidity;BMP_temperature;BMP_pressure;BME280_temperature;BME280_humidity;BME280_pressure;Samples;Min_cycle;Max_cycle;Signal;HPM_P1;HPM_P2
2023/03/28 00:02:57;;;;;;;5.55;1.60;;;-0.20;99.90;;;;;;7277932;32;20211;-55
2023/03/28 00:06:59;;;;;;;6.70;1.90;;;-0.20;99.90;;;;;;7280443;32;20253;-55
2023/03/28 00:11:18;;;;;;;7.82;1.75;;;-0.20;99.90;;;;;;7284714;32;20127;-55
2023/03/28 00:15:19;;;;;;;7.07;2.20;;;-0.10;99.90;;;;;;7281233;32;20109;-55
2023/03/28 00:19:21;;;;;;;8.95;1.95;;;-0.20;99.90;;;;;;7277255;32;20595;-56
2023/03/28 00:23:26;;;;;;;5.47;1.75;;;-0.20;99.90;;;;;;7282760;32;20191;-55
2023/03/28 00:27:28;;;;;;;5.30;2.20;;;-0.20;99.90;;;;;;7282506;32;20169;-55
2023/03/28 00:31:31;;;;;;;6.90;1.75;;;-0.20;99.90;;;;;;7273983;32;20222;-55
2023/03/28 00:35:34;;;;;;;5.55;1.77;;;-0.30;99.90;;;;;;7278574;32;20276;-55
2023/03/28 00:39:36;;;;;;;12.90;2.12;;;-0.40;99.90;;;;;;7277293;32;20132;-55
2023/03/28 00:43:40;;;;;;;6.53;1.90;;;-0.40;99.90;;;;;;7275758;32;20221;-55
2023/03/28 00:47:51;;;;;;;5.87;1.62;;;-0.40;99.90;;;;;;7281104;32;20126;-55
2023/03/28 00:52:00;;;;;;;7.22;1.80;;;-0.40;99.90;;;;;;7276240;32;23956;-55
2023/03/28 00:56:07;;;;;;;4.12;1.98;;;-0.50;99.90;;;;;;7273157;32;20397;-55
2023/03/28 01:00:12;;;;;;;;;;;-0.50;99.90;;;;;;7270458;32;20100;-55
2023/03/28 01:04:19;;;;;;;6.97;2.08;;;-0.50;99.90;;;;;;7277971;32;20010;-55
2023/03/28 01:08:24;;;;;;;4.85;2.28;;;-0.50;99.90;;;;;;7284386;32;20169;-55
2023/03/28 01:12:26;;;;;;;8.35;2.42;;;-0.50;99.90;;;;;;7279730;32;20105;-55
2023/03/28 01:16:31;;;;;;;6.07;2.00;;;-0.50;99.90;;;;;;7287622;32;20115;-56
2023/03/28 01:20:34;;;;;;;6.72;2.28;;;-0.60;99.90;;;;;;7286118;32;20187;-55
2023/03/28 01:25:06;;;;;;;5.72;2.40;;;-0.60;99.90;;;;;;7285709;32;20124;-56
2023/03/28 01:29:31;;;;;;;10.48;2.47;;;-0.60;99.90;;;;;;7279829;32;20566;-55
2023/03/28 01:33:51;;;;;;;3.70;2.00;;;-0.60;99.90;;;;;;7284093;32;20335;-55
2023/03/28 01:38:35;;;;;;;5.53;2.03;;;-0.60;99.90;;;;;;7283027;32;20191;-55
2023/03/28 01:42:51;;;;;;;5.40;2.20;;;-0.70;99.90;;;;;;7275550;32;20258;-55
2023/03/28 01:47:02;;;;;;;;;;;-0.70;99.90;;;;;;7289790;32;20234;-56
2023/03/28 01:51:19;;;;;;;5.68;2.10;;;-0.80;99.90;;;;;;7290585;32;20007;-55
2023/03/28 01:55:47;;;;;;;6.65;2.40;;;-0.70;99.90;;;;;;7280815;32;20416;-55
2023/03/28 02:00:00;;;;;;;;;;;-0.70;99.90;;;;;;7286907;32;20103;-56
2023/03/28 02:04:07;;;;;;;6.80;1.80;;;-0.80;99.90;;;;;;7286678;32;20027;-56
2023/03/28 02:08:25;;;;;;;8.30;2.35;;;-0.80;99.90;;;;;;7287643;32;20214;-55
2023/03/28 02:12:39;;;;;;;6.37;1.98;;;-0.80;99.90;;;;;;7289373;32;20171;-55
2023/03/28 02:16:43;;;;;;;10.20;2.35;;;-0.90;99.90;;;;;;7284912;32;20276;-56
2023/03/28 02:20:52;;;;;;;6.25;2.35;;;-0.90;99.90;;;;;;7280655;32;20108;-56
2023/03/28 02:24:55;;;;;;;9.35;2.55;;;-0.90;99.90;;;;;;7270309;32;20244;-56
2023/03/28 02:28:58;;;;;;;7.50;2.17;;;-0.90;99.90;;;;;;7281311;32;20529;-56
2023/03/28 02:33:01;;;;;;;10.20;2.67;;;-0.90;99.90;;;;;;7267313;32;20245;-56
2023/03/28 02:37:29;;;;;;;10.82;2.62;;;-0.90;99.90;;;;;;7277146;32;20510;-56
2023/03/28 02:42:01;;;;;;;9.13;2.40;;;-1.00;99.90;;;;;;7276240;32;20530;-55
2023/03/28 02:46:26;;;;;;;8.52;2.33;;;-1.00;99.90;;;;;;7276930;32;20100;-56
2023/03/28 02:50:43;;;;;;;5.62;2.33;;;-1.00;99.90;;;;;;7282247;32;20130;-55
2023/03/28 02:55:02;;;;;;;9.25;2.30;;;-1.00;99.90;;;;;;7261080;32;20831;-55
2023/03/28 02:59:23;;;;;;;5.35;2.40;;;-1.10;99.90;;;;;;7283842;32;20120;-56
2023/03/28 03:03:24;;;;;;;8.57;2.85;;;-1.10;99.90;;;;;;7281126;32;20161;-55
2023/03/28 03:07:27;;;;;;;7.28;2.35;;;-1.00;99.90;;;;;;7282758;32;20189;-55
2023/03/28 03:11:30;;;;;;;8.60;2.60;;;-1.10;99.90;;;;;;7278429;32;20097;-56
2023/03/28 03:15:34;;;;;;;14.45;2.65;;;-1.10;99.90;;;;;;7282294;32;20165;-54
2023/03/28 03:19:36;;;;;;;4.97;2.40;;;-1.10;99.90;;;;;;7286664;32;20203;-54
2023/03/28 03:23:37;;;;;;;5.97;2.12;;;-1.20;99.90;;;;;;7269355;32;20220;-54
2023/03/28 03:27:39;;;;;;;6.60;2.20;;;-1.30;99.90;;;;;;7276009;32;20467;-54
2023/03/28 03:31:41;;;;;;;11.05;2.30;;;-1.20;99.90;;;;;;7274225;32;20103;-54
2023/03/28 03:35:46;;;;;;;7.93;2.70;;;-1.20;99.90;;;;;;7279194;32;20373;-54
2023/03/28 03:39:48;;;;;;;5.72;2.53;;;-1.20;99.90;;;;;;7280730;32;20203;-54
2023/03/28 03:43:50;;;;;;;8.50;2.55;;;-1.20;99.90;;;;;;7276488;32;20123;-54
2023/03/28 03:47:52;;;;;;;7.25;2.75;;;-1.20;99.90;;;;;;7283057;32;20274;-54
2023/03/28 03:51:53;;;;;;;8.77;2.85;;;-1.20;99.90;;;;;;7282936;32;20132;-55
2023/03/28 03:56:00;;;;;;;9.18;2.85;;;-1.30;99.90;;;;;;7279477;32;20128;-55
2023/03/28 04:00:13;;;;;;;7.93;2.55;;;-1.30;99.90;;;;;;7279259;32;20497;-55
2023/03/28 04:04:15;;;;;;;5.20;2.20;;;-1.30;99.90;;;;;;7283415;32;20199;-55
2023/03/28 04:08:16;;;;;;;5.80;2.62;;;-1.30;99.90;;;;;;7280351;32;20099;-55
2023/03/28 04:12:18;;;;;;;6.05;2.53;;;-1.30;99.90;;;;;;7285695;32;20223;-55
2023/03/28 04:16:20;;;;;;;8.48;2.87;;;-1.30;99.90;;;;;;7287858;32;20096;-55
2023/03/28 04:20:28;;;;;;;9.00;2.50;;;-1.40;99.90;;;;;;7285218;32;20211;-54
2023/03/28 04:24:30;;;;;;;6.90;2.80;;;-1.40;99.90;;;;;;7288274;32;20124;-54
2023/03/28 04:28:31;;;;;;;7.57;2.70;;;-1.40;99.90;;;;;;7283029;32;20104;-54
2023/03/28 04:32:34;;;;;;;6.87;2.60;;;-1.40;99.90;;;;;;7278079;32;20213;-55
2023/03/28 04:36:39;;;;;;;4.93;2.47;;;-1.40;99.90;;;;;;7279822;32;20104;-55
2023/03/28 04:40:43;;;;;;;6.82;2.50;;;-1.40;99.90;;;;;;7287076;32;20195;-56
2023/03/28 04:44:45;;;;;;;7.72;2.53;;;-1.40;99.90;;;;;;7285025;32;20159;-55
2023/03/28 04:48:46;;;;;;;5.20;2.58;;;-1.40;99.90;;;;;;7277404;32;20159;-54
2023/03/28 04:52:48;;;;;;;11.32;2.90;;;-1.40;99.90;;;;;;7279783;32;20130;-55
2023/03/28 04:56:50;;;;;;;8.45;2.70;;;-1.40;99.90;;;;;;7281375;32;20112;-55
2023/03/28 05:00:52;;;;;;;6.32;2.75;;;-1.50;99.90;;;;;;7282014;32;20186;-55
2023/03/28 05:04:54;;;;;;;24.08;11.65;;;-1.50;99.90;;;;;;7274082;32;20206;-55
2023/03/28 05:08:56;;;;;;;10.95;4.43;;;-1.50;99.90;;;;;;7277971;32;20165;-55
2023/03/28 05:12:58;;;;;;;8.90;3.22;;;-1.50;99.90;;;;;;7274369;32;20224;-55
2023/03/28 05:16:59;;;;;;;13.93;3.65;;;-1.50;99.90;;;;;;7272517;32;20104;-55
2023/03/28 05:21:01;;;;;;;9.27;2.87;;;-1.50;99.90;;;;;;7278819;32;20574;-57
2023/03/28 05:25:05;;;;;;;10.43;3.95;;;-1.50;99.90;;;;;;7272497;32;20943;-56
2023/03/28 05:29:06;;;;;;;12.32;5.30;;;-1.50;99.90;;;;;;7277083;32;20100;-56
2023/03/28 05:33:08;;;;;;;12.18;3.25;;;-1.50;99.90;;;;;;7269499;32;20100;-56
2023/03/28 05:37:10;;;;;;;7.68;3.10;;;-1.50;99.90;;;;;;7276041;32;20100;-56
2023/03/28 05:41:12;;;;;;;8.80;3.17;;;-1.50;99.90;;;;;;7282900;32;20123;-56
2023/03/28 05:45:14;;;;;;;17.35;7.45;;;-1.40;99.90;;;;;;7274460;32;21022;-57
2023/03/28 05:49:16;;;;;;;10.77;3.97;;;-1.40;99.90;;;;;;7277743;32;20100;-57
2023/03/28 05:53:19;;;;;;;7.05;3.47;;;-1.40;99.90;;;;;;7273024;32;20115;-56
2023/03/28 05:57:21;;;;;;;10.20;3.90;;;-1.50;99.90;;;;;;7275571;32;20096;-56
2023/03/28 06:01:27;;;;;;;12.10;4.30;;;-1.40;99.90;;;;;;7277432;32;20122;-55
2023/03/28 06:05:30;;;;;;;12.10;4.20;;;-1.40;99.90;;;;;;7277306;32;20118;-56
2023/03/28 06:09:33;;;;;;;10.50;3.50;;;-1.20;99.90;;;;;;7280793;32;20187;-56
2023/03/28 06:13:35;;;;;;;7.57;3.50;;;-1.20;99.90;;;;;;7284004;32;20191;-56
2023/03/28 06:17:37;;;;;;;8.02;3.62;;;-1.20;99.90;;;;;;7280671;32;20250;-56
2023/03/28 06:21:39;;;;;;;8.93;3.80;;;-1.10;99.90;;;;;;7281419;32;20196;-56
2023/03/28 06:25:40;;;;;;;9.38;3.87;;;-1.00;99.90;;;;;;7281029;32;20362;-56
2023/03/28 06:29:42;;;;;;;13.98;3.75;;;-0.90;99.90;;;;;;7284115;32;20187;-56
2023/03/28 06:33:44;;;;;;;6.90;3.30;;;-0.80;99.90;;;;;;7282822;32;20962;-56
2023/03/28 06:37:46;;;;;;;7.70;3.83;;;-0.70;99.90;;;;;;7290393;32;20777;-57
2023/03/28 06:41:47;;;;;;;10.70;4.62;;;-0.60;99.90;;;;;;7281643;32;20122;-55
2023/03/28 06:45:49;;;;;;;14.40;5.47;;;-0.50;99.90;;;;;;7288751;32;20101;-55
2023/03/28 06:49:51;;;;;;;11.32;4.85;;;-0.40;99.90;;;;;;7284555;32;20104;-55
2023/03/28 06:53:53;;;;;;;16.30;5.47;;;-0.20;99.90;;;;;;7284945;32;20463;-55
2023/03/28 06:57:54;;;;;;;12.73;5.30;;;-0.10;99.90;;;;;;7283732;32;20183;-54
2023/03/28 07:01:56;;;;;;;13.82;5.45;;;0.10;99.90;;;;;;7278367;32;20104;-56
2023/03/28 07:06:06;;;;;;;14.73;5.60;;;0.30;99.90;;;;;;7277298;32;20108;-56
2023/03/28 07:10:08;;;;;;;18.02;5.47;;;0.40;99.90;;;;;;7277829;32;20096;-56
2023/03/28 07:14:10;;;;;;;13.35;5.00;;;0.50;99.90;;;;;;7283273;32;20754;-56
2023/03/28 07:18:11;;;;;;;15.23;6.55;;;0.80;99.90;;;;;;7279223;32;20096;-56
2023/03/28 07:22:13;;;;;;;11.93;5.90;;;0.90;99.90;;;;;;7282732;32;20109;-56
2023/03/28 07:26:15;;;;;;;10.32;4.85;;;1.00;99.90;;;;;;7273424;32;20134;-56
2023/03/28 07:30:17;;;;;;;13.02;5.80;;;1.20;99.90;;;;;;7275202;32;20625;-55
2023/03/28 07:34:19;;;;;;;12.18;5.12;;;1.30;99.90;;;;;;7281619;32;20135;-56
2023/03/28 07:38:21;;;;;;;13.60;5.50;;;1.40;99.90;;;;;;7278827;32;20112;-55
2023/03/28 07:42:22;;;;;;;10.65;5.20;;;1.70;99.90;;;;;;7283901;32;20277;-55
2023/03/28 07:46:24;;;;;;;14.02;4.93;;;1.80;99.90;;;;;;7279374;32;20189;-56
2023/03/28 07:50:26;;;;;;;15.68;5.82;;;1.90;99.90;;;;;;7283273;32;20124;-56
2023/03/28 07:54:32;;;;;;;11.65;4.85;;;2.10;99.90;;;;;;7277575;32;20222;-56
2023/03/28 07:58:33;;;;;;;14.57;4.28;;;2.30;99.90;;;;;;7281621;32;20218;-56
2023/03/28 08:02:35;;;;;;;16.45;5.12;;;2.60;99.90;;;;;;7285921;32;20252;-56
2023/03/28 08:06:39;;;;;;;12.40;4.80;;;2.90;99.90;;;;;;7273987;32;20253;-56
2023/03/28 08:10:44;;;;;;;9.07;4.12;;;3.30;99.90;;;;;;7275135;32;20254;-56
2023/03/28 08:14:46;;;;;;;9.35;4.30;;;4.10;99.90;;;;;;7285476;32;20143;-56
2023/03/28 08:18:47;;;;;;;10.77;3.53;;;4.60;99.90;;;;;;7273971;32;20660;-56
2023/03/28 08:23:04;;;;;;;14.63;4.50;;;4.70;99.90;;;;;;7275153;32;20187;-56
2023/03/28 08:27:06;;;;;;;17.10;4.82;;;4.80;99.90;;;;;;7275055;32;20179;-56
2023/03/28 08:31:13;;;;;;;15.10;4.55;;;5.10;99.90;;;;;;7284757;32;20118;-57
2023/03/28 08:35:15;;;;;;;12.88;4.25;;;5.50;99.90;;;;;;7280568;32;20119;-57
2023/03/28 08:39:17;;;;;;;11.35;4.37;;;6.20;99.90;;;;;;7273620;32;20466;-53
2023/03/28 08:43:53;;;;;;;17.05;3.58;;;7.10;99.90;;;;;;7278688;32;20841;-56
2023/03/28 08:48:14;;;;;;;7.62;3.33;;;7.50;99.90;;;;;;7277563;32;20462;-56
2023/03/28 08:52:18;;;;;;;8.90;3.90;;;7.30;99.90;;;;;;7282632;32;20211;-56
2023/03/28 08:56:20;;;;;;;9.65;3.62;;;7.20;99.90;;;;;;7282571;32;20250;-56
2023/03/28 09:00:32;;;;;;;12.73;3.80;;;7.20;99.90;;;;;;7278297;32;20302;-56
2023/03/28 09:04:35;;;;;;;7.40;3.10;;;7.30;99.90;;;;;;7280925;32;20528;-56
2023/03/28 09:08:53;;;;;;;12.00;2.97;;;7.40;99.90;;;;;;7272251;32;20123;-56
2023/03/28 09:13:20;;;;;;;13.90;3.22;;;7.30;99.90;;;;;;7277906;32;20187;-57
2023/03/28 09:17:28;;;;;;;12.23;3.35;;;7.30;99.90;;;;;;7278188;32;20205;-57
2023/03/28 09:21:47;;;;;;;8.32;2.67;;;7.20;99.90;;;;;;7276226;32;20329;-56
2023/03/28 09:26:15;;;;;;;10.65;2.42;;;7.80;99.90;;;;;;7265291;32;20104;-57
2023/03/28 09:30:21;;;;;;;13.93;3.05;;;8.20;99.90;;;;;;7289376;32;20132;-58
2023/03/28 09:34:38;;;;;;;8.95;1.83;;;8.10;99.90;;;;;;7275320;32;20112;-57
2023/03/28 09:38:45;;;;;;;8.57;1.90;;;7.80;99.90;;;;;;7278030;32;20825;-57
2023/03/28 09:43:06;;;;;;;;;;;8.20;99.90;;;;;;7278894;32;20130;-57
2023/03/28 09:47:11;;;;;;;5.68;1.77;;;7.90;99.90;;;;;;7279836;32;20100;-57
2023/03/28 09:51:18;;;;;;;5.07;1.50;;;7.90;99.90;;;;;;7283551;32;20585;-57
2023/03/28 09:55:26;;;;;;;4.90;1.60;;;8.00;99.90;;;;;;7280172;32;20188;-57
2023/03/28 09:59:30;;;;;;;8.20;1.67;;;9.00;99.90;;;;;;7283042;32;20408;-57
2023/03/28 10:03:31;;;;;;;4.25;1.35;;;10.00;99.90;;;;;;7292840;32;20219;-56
2023/03/28 10:07:41;;;;;;;5.87;1.25;;;11.30;99.90;;;;;;7281793;32;20752;-57
2023/03/28 10:11:47;;;;;;;4.28;0.90;;;11.50;99.90;;;;;;7281316;32;20632;-57
2023/03/28 10:15:50;;;;;;;4.43;1.20;;;11.90;97.40;;;;;;7279015;32;20100;-57
2023/03/28 10:19:57;;;;;;;6.50;1.23;;;12.40;90.80;;;;;;7276745;32;20170;-57
2023/03/28 10:24:07;;;;;;;7.10;1.10;;;11.80;93.00;;;;;;7281107;32;20232;-57
2023/03/28 10:28:31;;;;;;;4.30;1.23;;;12.00;90.70;;;;;;7277517;32;20852;-58
2023/03/28 10:32:33;;;;;;;8.38;1.52;;;11.10;92.20;;;;;;7286768;32;20620;-57
2023/03/28 10:36:41;;;;;;;5.10;0.70;;;11.40;91.90;;;;;;7275704;32;21035;-58
2023/03/28 10:40:52;;;;;;;4.12;0.88;;;12.10;88.80;;;;;;7272562;32;20271;-57
2023/03/28 10:45:01;;;;;;;3.12;0.60;;;12.70;85.70;;;;;;7280002;32;20199;-58
2023/03/28 10:49:16;;;;;;;5.00;0.93;;;11.60;79.60;;;;;;7278990;32;20962;-57
2023/03/28 10:53:54;;;;;;;5.32;0.80;;;10.90;83.70;;;;;;7285193;32;20295;-57
2023/03/28 10:58:01;;;;;;;4.93;1.10;;;10.80;84.80;;;;;;7278629;32;20192;-57
2023/03/28 11:02:16;;;;;;;;;;;10.80;89.30;;;;;;7279423;32;20187;-57
2023/03/28 11:06:24;;;;;;;5.40;0.80;;;11.00;86.60;;;;;;7276499;32;20066;-55
2023/03/28 11:11:03;;;;;;;2.30;1.10;;;10.40;86.00;;;;;;7274544;32;20100;-54
2023/03/28 11:15:05;;;;;;;4.80;1.02;;;10.00;87.60;;;;;;7277546;32;20180;-55
2023/03/28 11:19:09;;;;;;;3.30;1.20;;;10.00;88.20;;;;;;7276546;32;20127;-55
2023/03/28 11:23:52;;;;;;;8.07;0.88;;;10.30;88.00;;;;;;7276436;32;20162;-56
2023/03/28 11:28:20;;;;;;;3.15;0.77;;;10.20;87.30;;;;;;7277514;32;20126;-56
2023/03/28 11:32:41;;;;;;;3.65;1.08;;;9.60;87.40;;;;;;7280182;32;20096;-56
2023/03/28 11:36:52;;;;;;;4.53;0.90;;;10.30;86.00;;;;;;7272804;32;20443;-62
2023/03/28 11:41:06;;;;;;;2.58;0.70;;;11.30;90.80;;;;;;7274441;32;20136;-61
2023/03/28 11:45:11;;;;;;;4.70;1.02;;;10.70;87.20;;;;;;7280358;32;20122;-58
2023/03/28 11:49:32;;;;;;;6.53;0.80;;;11.00;84.50;;;;;;7280247;32;20154;-58
2023/03/28 11:53:40;;;;;;;3.28;0.82;;;11.20;84.90;;;;;;7279311;32;20422;-57
2023/03/28 11:58:00;;;;;;;4.97;0.90;;;10.80;88.40;;;;;;7272361;32;20100;-60
2023/03/28 12:02:28;;;;;;;4.75;0.90;;;10.30;86.40;;;;;;7283226;32;20223;-56
2023/03/28 12:06:45;;;;;;;4.72;0.85;;;10.10;89.80;;;;;;7252021;32;20498;-58
2023/03/28 12:11:24;;;;;;;4.35;0.98;;;10.00;90.20;;;;;;7284142;32;20120;-57
2023/03/28 12:15:54;;;;;;;2.28;0.70;;;9.70;84.70;;;;;;7265409;32;20274;-57
2023/03/28 12:19:57;;;;;;;5.12;0.88;;;10.00;90.10;;;;;;7272457;32;20619;-62
2023/03/28 12:24:02;;;;;;;3.65;1.23;;;10.50;81.80;;;;;;7281159;32;20487;-61
2023/03/28 12:28:32;;;;;;;3.37;0.93;;;12.00;81.40;;;;;;7277965;32;20100;-56
2023/03/28 12:33:14;;;;;;;3.08;0.80;;;13.80;72.30;;;;;;7275686;32;20092;-56
2023/03/28 12:37:28;;;;;;;3.45;1.05;;;14.20;68.50;;;;;;7282747;32;20195;-56
2023/03/28 12:41:36;;;;;;;2.78;0.80;;;16.20;63.50;;;;;;7272913;32;20443;-56
2023/03/28 12:45:44;;;;;;;5.28;1.12;;;15.10;60.20;;;;;;7273472;32;20126;-57
2023/03/28 12:49:52;;;;;;;2.22;0.80;;;14.30;61.90;;;;;;7274518;32;20119;-56
2023/03/28 12:54:07;;;;;;;2.60;0.70;;;13.50;61.00;;;;;;7286064;32;20201;-56
2023/03/28 12:58:27;;;;;;;1.58;0.68;;;13.10;61.70;;;;;;7280491;32;20206;-56
2023/03/28 13:02:28;;;;;;;4.47;0.68;;;12.90;60.70;;;;;;7276007;32;20147;-56
2023/03/28 13:06:41;;;;;;;4.22;1.00;;;12.60;61.60;;;;;;7276007;32;20100;-57
2023/03/28 13:11:07;;;;;;;4.00;0.98;;;13.20;65.30;;;;;;7278083;32;20104;-57
2023/03/28 13:15:12;;;;;;;1.50;0.82;;;13.00;60.50;;;;;;7280908;32;20258;-57
2023/03/28 13:19:14;;;;;;;2.83;0.88;;;12.50;63.30;;;;;;7280224;32;20839;-57
2023/03/28 13:23:32;;;;;;;2.72;0.82;;;11.50;60.30;;;;;;7275365;32;20535;-56
2023/03/28 13:27:34;;;;;;;2.70;0.82;;;11.10;60.60;;;;;;7274299;32;20711;-56
2023/03/28 13:31:42;;;;;;;2.87;0.77;;;10.70;62.10;;;;;;7283781;32;20149;-57
2023/03/28 13:36:08;;;;;;;3.97;0.77;;;10.80;66.90;;;;;;7278319;32;20801;-56
2023/03/28 13:40:50;;;;;;;2.80;0.80;;;10.60;64.00;;;;;;7284677;32;20755;-57
2023/03/28 13:44:56;;;;;;;2.78;0.77;;;10.80;69.00;;;;;;7280060;32;20226;-56
2023/03/28 13:49:16;;;;;;;3.40;1.00;;;10.70;69.00;;;;;;7285648;32;20100;-56
2023/03/28 13:53:19;;;;;;;3.72;1.45;;;10.30;72.70;;;;;;7282314;32;20578;-56
2023/03/28 13:57:25;;;;;;;2.08;0.90;;;10.40;70.70;;;;;;7286207;32;20434;-56
2023/03/28 14:01:54;;;;;;;2.12;0.68;;;10.60;72.10;;;;;;7283617;32;20522;-56
2023/03/28 14:05:56;;;;;;;2.45;0.88;;;10.30;72.50;;;;;;7281235;32;20202;-56
2023/03/28 14:09:58;;;;;;;7.30;0.90;;;10.50;72.30;;;;;;7278153;32;20202;-56
2023/03/28 14:14:11;;;;;;;3.83;1.02;;;10.90;73.00;;;;;;7283941;32;20100;-56
2023/03/28 14:18:35;;;;;;;3.05;0.90;;;11.40;69.60;;;;;;7278760;32;20123;-56
2023/03/28 14:22:38;;;;;;;2.65;0.90;;;11.80;67.00;;;;;;7280464;32;20254;-56
2023/03/28 14:27:07;;;;;;;3.00;0.98;;;12.70;65.20;;;;;;7281884;32;20101;-56
2023/03/28 14:31:27;;;;;;;2.80;0.90;;;13.60;63.50;;;;;;7268507;32;20344;-56
2023/03/28 14:35:32;;;;;;;;;;;14.00;59.70;;;;;;7280206;32;20487;-56
2023/03/28 14:39:37;;;;;;;3.83;1.27;;;13.70;59.40;;;;;;7282001;32;20078;-56
2023/03/28 14:43:39;;;;;;;5.03;1.10;;;13.80;60.80;;;;;;7290100;32;20169;-56
2023/03/28 14:47:41;;;;;;;5.30;1.00;;;12.80;59.10;;;;;;7275804;32;20130;-56
2023/03/28 14:51:47;;;;;;;4.75;1.27;;;12.00;63.60;;;;;;7281659;32;20093;-56
2023/03/28 14:55:50;;;;;;;6.43;1.33;;;11.00;65.70;;;;;;7279549;32;20238;-56
2023/03/28 14:59:55;;;;;;;6.20;1.05;;;10.70;69.40;;;;;;7278598;32;20600;-56
2023/03/28 15:04:04;;;;;;;3.85;1.20;;;10.20;70.50;;;;;;7280843;32;20217;-57
2023/03/28 15:08:21;;;;;;;5.47;1.23;;;10.30;71.80;;;;;;7280516;32;20902;-56
2023/03/28 15:12:23;;;;;;;5.78;1.10;;;10.20;71.20;;;;;;7272781;32;20108;-56
2023/03/28 15:16:26;;;;;;;5.05;1.10;;;10.30;75.10;;;;;;7285491;32;20131;-57
2023/03/28 15:20:32;;;;;;;5.62;1.27;;;10.10;73.20;;;;;;7289817;32;20120;-56
2023/03/28 15:24:36;;;;;;;5.55;1.45;;;10.00;73.80;;;;;;7282554;32;20130;-56
2023/03/28 15:28:38;;;;;;;4.50;1.25;;;9.80;74.10;;;;;;7283610;32;20131;-56
2023/03/28 15:32:40;;;;;;;3.60;1.42;;;9.60;75.80;;;;;;7281185;32;20273;-56
2023/03/28 15:37:05;;;;;;;4.03;1.15;;;9.70;78.40;;;;;;7287248;32;20250;-57
2023/03/28 15:41:21;;;;;;;5.72;1.30;;;9.70;77.90;;;;;;7286451;32;20305;-56
2023/03/28 15:45:40;;;;;;;3.92;1.17;;;9.70;75.80;;;;;;7276961;32;20226;-56
2023/03/28 15:49:42;;;;;;;2.85;1.10;;;9.50;78.50;;;;;;7282864;32;20100;-55
2023/03/28 15:53:46;;;;;;;4.87;1.30;;;9.60;78.00;;;;;;7285946;32;20100;-56
2023/03/28 15:57:47;;;;;;;6.30;1.15;;;9.50;78.60;;;;;;7284286;32;20353;-55
2023/03/28 16:01:50;;;;;;;6.00;1.20;;;9.60;80.90;;;;;;7290988;32;20186;-55
2023/03/28 16:05:57;;;;;;;3.70;1.10;;;9.60;79.50;;;;;;7286552;32;20198;-55
2023/03/28 16:10:18;;;;;;;4.80;1.00;;;9.60;78.90;;;;;;7287609;32;20099;-56
2023/03/28 16:14:20;;;;;;;5.65;1.30;;;9.70;79.10;;;;;;7287978;32;20587;-55
2023/03/28 16:18:22;;;;;;;3.30;1.17;;;9.70;79.30;;;;;;7280295;32;20125;-57
2023/03/28 16:22:24;;;;;;;6.35;1.10;;;9.70;78.50;;;;;;7283876;32;20226;-58
2023/03/28 16:26:26;;;;;;;9.38;1.77;;;9.70;81.00;;;;;;7281911;32;20229;-56
2023/03/28 16:30:36;;;;;;;4.32;1.17;;;9.70;80.90;;;;;;7285473;32;20270;-57
2023/03/28 16:34:39;;;;;;;3.30;1.00;;;9.60;82.00;;;;;;7287865;32;20258;-57
2023/03/28 16:38:41;;;;;;;3.72;1.02;;;9.50;82.50;;;;;;7282895;32;20096;-57
2023/03/28 16:42:43;;;;;;;3.75;1.10;;;9.60;83.90;;;;;;7280255;32;20110;-55
2023/03/28 16:46:45;;;;;;;4.68;1.25;;;9.50;83.50;;;;;;7283463;32;20690;-57
2023/03/28 16:50:57;;;;;;;5.68;1.20;;;9.50;83.60;;;;;;7289588;32;20195;-56
2023/03/28 16:54:59;;;;;;;4.07;1.10;;;9.40;83.90;;;;;;7281249;32;20134;-57
2023/03/28 16:59:02;;;;;;;3.67;1.00;;;9.40;84.20;;;;;;7278159;32;20096;-57
2023/03/28 17:03:04;;;;;;;4.35;1.05;;;9.30;83.80;;;;;;7284221;32;20119;-56
2023/03/28 17:07:06;;;;;;;4.25;1.42;;;9.30;83.70;;;;;;7280729;32;20510;-56
2023/03/28 17:11:10;;;;;;;8.27;1.40;;;9.20;90.10;;;;;;7273266;32;20253;-56
2023/03/28 17:15:12;;;;;;;2.15;0.95;;;9.10;89.70;;;;;;7272460;32;20095;-56
2023/03/28 17:19:18;;;;;;;4.20;1.25;;;9.00;90.10;;;;;;7277189;32;20656;-58
2023/03/28 17:23:19;;;;;;;3.10;1.00;;;8.90;93.10;;;;;;7272251;32;20126;-56
2023/03/28 17:27:22;;;;;;;2.50;0.95;;;8.70;93.40;;;;;;7273766;32;20096;-56
2023/03/28 17:31:24;;;;;;;2.95;1.15;;;8.60;92.70;;;;;;7273326;32;20218;-56
2023/03/28 17:35:26;;;;;;;5.37;1.10;;;8.60;94.30;;;;;;7282426;32;20092;-57
2023/03/28 17:39:28;;;;;;;3.85;1.20;;;8.70;92.10;;;;;;7275363;32;20277;-57
2023/03/28 17:43:29;;;;;;;4.72;1.17;;;8.60;93.70;;;;;;7272806;32;20138;-56
2023/03/28 17:47:31;;;;;;;7.57;1.25;;;8.50;95.70;;;;;;7271667;32;20218;-56
2023/03/28 17:51:33;;;;;;;6.80;1.33;;;8.30;95.10;;;;;;7280313;32;20223;-55
2023/03/28 17:55:35;;;;;;;4.03;1.20;;;8.40;95.50;;;;;;7282009;32;20161;-56
2023/03/28 17:59:36;;;;;;;4.55;1.25;;;8.30;95.40;;;;;;7277871;32;20697;-56
2023/03/28 18:03:38;;;;;;;5.68;1.12;;;8.30;97.40;;;;;;7277241;32;20286;-56
2023/03/28 18:07:40;;;;;;;4.22;1.42;;;8.40;96.20;;;;;;7276954;32;20101;-55
2023/03/28 18:11:42;;;;;;;3.58;1.52;;;8.40;96.10;;;;;;7281495;32;20096;-55
2023/03/28 18:15:44;;;;;;;3.78;1.70;;;8.60;94.10;;;;;;7278517;32;20122;-55
2023/03/28 18:19:45;;;;;;;4.75;1.23;;;8.60;94.90;;;;;;7276169;32;20652;-55
2023/03/28 18:23:47;;;;;;;5.85;1.55;;;8.50;95.40;;;;;;7276722;32;20171;-55
2023/03/28 18:27:49;;;;;;;6.57;1.25;;;8.50;95.90;;;;;;7278654;32;20229;-55
2023/03/28 18:31:51;;;;;;;4.47;1.40;;;8.50;98.30;;;;;;7277889;32;20592;-55
2023/03/28 18:35:52;;;;;;;5.82;1.80;;;8.50;98.40;;;;;;7277411;32;20227;-55
2023/03/28 18:39:54;;;;;;;6.55;1.45;;;8.50;97.10;;;;;;7289831;32;20158;-57
2023/03/28 18:43:56;;;;;;;6.10;1.67;;;8.50;98.00;;;;;;7281155;32;20134;-56
2023/03/28 18:47:58;;;;;;;4.75;1.42;;;8.50;97.90;;;;;;7275931;32;20104;-56
2023/03/28 18:52:03;;;;;;;4.22;1.37;;;8.60;98.50;;;;;;7284341;32;20104;-56
2023/03/28 18:56:06;;;;;;;3.78;1.30;;;8.50;98.80;;;;;;7278249;32;20183;-56
2023/03/28 19:00:17;;;;;;;7.37;1.70;;;8.30;99.90;;;;;;7279841;32;20269;-56
2023/03/28 19:04:21;;;;;;;3.10;1.40;;;8.20;99.90;;;;;;7279005;32;20290;-56
2023/03/28 19:08:25;;;;;;;3.90;1.75;;;8.00;99.90;;;;;;7279610;32;20252;-56
2023/03/28 19:12:26;;;;;;;7.32;1.70;;;8.00;99.90;;;;;;7285523;32;20108;-56
2023/03/28 19:16:28;;;;;;;5.25;1.30;;;7.80;99.90;;;;;;7281904;32;20252;-55
2023/03/28 19:20:30;;;;;;;3.70;1.30;;;7.70;99.90;;;;;;7276347;32;20088;-55
2023/03/28 19:24:32;;;;;;;2.95;0.88;;;7.60;99.90;;;;;;7279340;32;20151;-55
2023/03/28 19:28:35;;;;;;;3.78;1.40;;;7.40;99.90;;;;;;7284265;32;20122;-57
2023/03/28 19:32:36;;;;;;;3.78;1.27;;;7.30;99.90;;;;;;7278291;32;20099;-56
2023/03/28 19:36:38;;;;;;;2.83;1.27;;;7.10;99.90;;;;;;7281538;32;20294;-56
2023/03/28 19:40:40;;;;;;;8.63;1.58;;;7.00;99.90;;;;;;7278887;32;20635;-55
2023/03/28 19:44:42;;;;;;;8.07;1.58;;;6.90;99.90;;;;;;7286121;32;20610;-56
2023/03/28 19:48:44;;;;;;;4.60;1.60;;;6.60;99.90;;;;;;7279799;32;20538;-56
2023/03/28 19:52:46;;;;;;;3.83;1.40;;;6.50;99.90;;;;;;7274798;32;20762;-56
2023/03/28 19:56:47;;;;;;;8.35;2.40;;;6.30;99.90;;;;;;7282703;32;20700;-56
2023/03/28 20:00:50;;;;;;;5.43;1.70;;;6.20;99.90;;;;;;7277880;32;20324;-55
2023/03/28 20:04:51;;;;;;;4.40;2.08;;;6.20;99.90;;;;;;7280390;32;20270;-55
2023/03/28 20:08:53;;;;;;;7.53;2.05;;;6.10;99.90;;;;;;7278658;32;20100;-55
2023/03/28 20:12:55;;;;;;;6.75;1.90;;;6.00;99.90;;;;;;7278660;32;20495;-55
2023/03/28 20:16:56;;;;;;;4.50;1.70;;;5.90;99.90;;;;;;7276636;32;20123;-55
2023/03/28 20:21:00;;;;;;;5.05;1.80;;;5.80;99.90;;;;;;7279643;32;20130;-54
2023/03/28 20:25:02;;;;;;;4.80;2.15;;;5.70;99.90;;;;;;7277655;32;20088;-56
2023/03/28 20:29:04;;;;;;;4.15;1.90;;;5.70;99.90;;;;;;7272848;32;20123;-55
2023/03/28 20:33:06;;;;;;;3.62;1.75;;;5.70;99.90;;;;;;7280105;32;20140;-55
2023/03/28 20:37:07;;;;;;;7.18;2.28;;;5.60;99.90;;;;;;7280553;32;20105;-55
2023/03/28 20:41:15;;;;;;;4.95;1.90;;;5.60;99.90;;;;;;7274275;32;20128;-55
2023/03/28 20:45:21;;;;;;;4.37;2.20;;;5.50;99.90;;;;;;7277341;32;20112;-55
2023/03/28 20:49:23;;;;;;;5.25;2.15;;;5.60;99.90;;;;;;7279972;32;20230;-55
2023/03/28 20:53:25;;;;;;;5.70;2.58;;;5.50;99.90;;;;;;7281758;32;20231;-55
2023/03/28 20:57:29;;;;;;;5.35;2.65;;;5.50;99.90;;;;;;7280622;32;20459;-55
2023/03/28 21:01:31;;;;;;;5.87;2.67;;;5.60;99.90;;;;;;7282232;32;20239;-55
2023/03/28 21:05:33;;;;;;;9.80;3.40;;;5.50;99.90;;;;;;7281980;32;20389;-55
2023/03/28 21:09:36;;;;;;;7.15;2.87;;;5.40;99.90;;;;;;7278471;32;20311;-55
2023/03/28 21:13:39;;;;;;;7.50;2.97;;;5.50;99.90;;;;;;7278659;32;20182;-55
2023/03/28 21:17:41;;;;;;;7.80;2.85;;;5.40;99.90;;;;;;7280075;32;20343;-55
2023/03/28 21:21:43;;;;;;;6.72;2.62;;;5.30;99.90;;;;;;7270949;32;20100;-55
2023/03/28 21:25:46;;;;;;;4.95;2.40;;;5.30;99.90;;;;;;7274747;32;20377;-55
2023/03/28 21:29:48;;;;;;;7.07;2.90;;;5.40;99.90;;;;;;7280578;32;20104;-55
2023/03/28 21:33:51;;;;;;;6.53;2.47;;;5.30;99.90;;;;;;7273977;32;20213;-55